Terminal Aerodrome Forecast
Issued by NWS

Home | Current Version | Previous Version | Text Only | Print | Product List | Glossary On
Versions: 1 2 3 4 5 6 7 8 9 10 11 12 13 14 15 16 17 18 19 20 21 22 23 24 25 26 27 28 29 30 31 32 33 34 35
000
FTUS43 KLOT 301300 AAA
TAFMDW
TAF AMD
KMDW 301337Z 3014/0112 36011KT 6SM BR SCT007 OVC014
      TEMPO 3014/3016 4SM -RADZ BKN007 OVC014
     FM301600 02009KT P6SM BKN015
     FM302100 06009KT P6SM BKN020
     FM010300 08005KT P6SM BKN015=

USA.gov is the U.S. government's official web portal to all federal, state and local government web resources and services.